UAE312 OMDB-OKKK
Flight info
| Callsign | UAE312 |
|---|---|
| Flight time | N/A |
| Altitude | 34000 |
| Route | RIDAP M557 TUMAK M600 KUMBO A453 DEBTI |
| Aircraft | B77W/H-SDE1E2E3FGHIJ2J3J4J5M1RWXY/LB1D1 |
Departure
| Time | 2026-04-24 12:34 |
|---|---|
| Airport | Dubai International Airport (OMDB) |
Arrival
| Time | N/A |
|---|---|
| Airport | Kuwait International Airport (OKKK) |
| Time | Latitude | Longitude | Altitude | Speed | Heading |
|---|---|---|---|---|---|
| 2026-04-24 11:51 | 25.24351 | 55.37369 | 37 ft | 0 kts | 212° |
| 2026-04-24 12:25 | 25.24358 | 55.37373 | 37 ft | 2 kts | 212° |
| 2026-04-24 12:25 | 25.24371 | 55.37382 | 37 ft | 2 kts | 211° |
| 2026-04-24 12:25 | 25.24379 | 55.37388 | 37 ft | 1 kts | 211° |
| 2026-04-24 12:26 | 25.24392 | 55.37396 | 37 ft | 2 kts | 200° |
| 2026-04-24 12:26 | 25.24407 | 55.37399 | 37 ft | 2 kts | 184° |
| 2026-04-24 12:26 | 25.24422 | 55.37399 | 37 ft | 2 kts | 170° |
| 2026-04-24 12:26 | 25.24436 | 55.37395 | 37 ft | 2 kts | 156° |
| 2026-04-24 12:27 | 25.24449 | 55.37387 | 37 ft | 2 kts | 142° |
| 2026-04-24 12:27 | 25.24460 | 55.37376 | 37 ft | 2 kts | 128° |
| 2026-04-24 12:27 | 25.24465 | 55.37367 | 37 ft | 1 kts | 121° |
| 2026-04-24 12:27 | 25.24466 | 55.37367 | 37 ft | 0 kts | 121° |
| 2026-04-24 12:29 | 25.24451 | 55.37394 | 37 ft | 13 kts | 121° |
| 2026-04-24 12:30 | 25.24394 | 55.37494 | 37 ft | 17 kts | 122° |
| 2026-04-24 12:30 | 25.24329 | 55.37607 | 39 ft | 16 kts | 120° |
| 2026-04-24 12:30 | 25.24277 | 55.37705 | 42 ft | 13 kts | 121° |
| 2026-04-24 12:30 | 25.24257 | 55.37767 | 45 ft | 4 kts | 65° |
| 2026-04-24 12:31 | 25.24282 | 55.37788 | 46 ft | 6 kts | 30° |
| 2026-04-24 12:31 | 25.24338 | 55.37824 | 46 ft | 12 kts | 30° |
| 2026-04-24 12:31 | 25.24428 | 55.37888 | 46 ft | 18 kts | 34° |
| 2026-04-24 12:31 | 25.24536 | 55.37968 | 45 ft | 18 kts | 33° |
| 2026-04-24 12:32 | 25.24639 | 55.38041 | 44 ft | 13 kts | 32° |
| 2026-04-24 12:32 | 25.24719 | 55.38097 | 43 ft | 13 kts | 32° |
| 2026-04-24 12:32 | 25.24758 | 55.38112 | 43 ft | 4 kts | 334° |
| 2026-04-24 12:32 | 25.24768 | 55.38099 | 43 ft | 0 kts | 301° |
| 2026-04-24 12:33 | 25.24814 | 55.38015 | 43 ft | 39 kts | 301° |
| 2026-04-24 12:33 | 25.25093 | 55.37510 | 41 ft | 112 kts | 301° |
| 2026-04-24 12:33 | 25.25612 | 55.36574 | 122 ft | 163 kts | 302° |
| 2026-04-24 12:34 | 25.26205 | 55.35486 | 715 ft | 173 kts | 303° |
| 2026-04-24 12:34 | 25.26850 | 55.34329 | 1469 ft | 184 kts | 303° |
| 2026-04-24 12:34 | 25.27545 | 55.33083 | 2100 ft | 202 kts | 302° |
| 2026-04-24 12:34 | 25.28305 | 55.31721 | 2787 ft | 218 kts | 302° |
| 2026-04-24 12:35 | 25.29134 | 55.30228 | 3524 ft | 234 kts | 301° |
| 2026-04-24 12:35 | 25.30010 | 55.28671 | 4304 ft | 249 kts | 303° |
| 2026-04-24 12:35 | 25.31044 | 55.27074 | 5085 ft | 265 kts | 305° |
| 2026-04-24 12:35 | 25.32130 | 55.25407 | 6069 ft | 273 kts | 303° |
| 2026-04-24 12:36 | 25.33218 | 55.23709 | 7158 ft | 276 kts | 303° |
| 2026-04-24 12:36 | 25.34320 | 55.21978 | 8194 ft | 280 kts | 303° |
| 2026-04-24 12:36 | 25.35352 | 55.20169 | 9242 ft | 283 kts | 291° |
| 2026-04-24 12:36 | 25.35762 | 55.18058 | 10246 ft | 286 kts | 271° |
| 2026-04-24 12:37 | 25.35756 | 55.15821 | 10915 ft | 302 kts | 267° |
| 2026-04-24 12:37 | 25.35667 | 55.13459 | 11767 ft | 318 kts | 266° |
| 2026-04-24 12:37 | 25.35570 | 55.10990 | 12482 ft | 334 kts | 266° |
| 2026-04-24 12:37 | 25.35532 | 55.09979 | 12786 ft | 340 kts | 266° |
| 2026-04-24 12:38 | 25.35466 | 55.08195 | 13252 ft | 351 kts | 267° |
| 2026-04-24 12:38 | 25.35466 | 55.08172 | 13257 ft | 351 kts | 267° |
| 2026-04-24 12:39 | 25.35227 | 55.01593 | 15264 ft | 378 kts | 267° |
| 2026-04-24 12:39 | 25.35193 | 55.00661 | 15605 ft | 379 kts | 267° |
| 2026-04-24 12:39 | 25.35088 | 54.97781 | 16595 ft | 383 kts | 268° |
| 2026-04-24 12:40 | 25.35025 | 54.96058 | 17184 ft | 386 kts | 268° |
| 2026-04-24 12:40 | 25.34950 | 54.94010 | 17819 ft | 390 kts | 268° |
| 2026-04-24 12:40 | 25.35052 | 54.91032 | 18761 ft | 394 kts | 277° |
| 2026-04-24 12:41 | 25.35623 | 54.88052 | 19635 ft | 401 kts | 285° |
| 2026-04-24 12:41 | 25.36457 | 54.85094 | 20548 ft | 406 kts | 286° |
| 2026-04-24 12:41 | 25.37316 | 54.82118 | 21405 ft | 411 kts | 286° |
| 2026-04-24 12:41 | 25.38182 | 54.79108 | 22237 ft | 416 kts | 285° |
| 2026-04-24 12:42 | 25.39058 | 54.76054 | 23015 ft | 422 kts | 285° |
| 2026-04-24 12:42 | 25.39940 | 54.72975 | 23841 ft | 426 kts | 285° |
| 2026-04-24 12:42 | 25.40835 | 54.69842 | 24701 ft | 430 kts | 286° |
| 2026-04-24 12:42 | 25.41736 | 54.66685 | 25532 ft | 433 kts | 286° |
| 2026-04-24 12:43 | 25.42633 | 54.63534 | 26318 ft | 438 kts | 286° |
| 2026-04-24 12:43 | 25.43554 | 54.60315 | 27065 ft | 443 kts | 286° |
| 2026-04-24 12:43 | 25.44514 | 54.57071 | 27850 ft | 447 kts | 287° |
| 2026-04-24 12:43 | 25.45482 | 54.53815 | 28598 ft | 451 kts | 286° |
| 2026-04-24 12:44 | 25.46466 | 54.50496 | 29394 ft | 453 kts | 287° |
| 2026-04-24 12:44 | 25.47436 | 54.47223 | 30350 ft | 452 kts | 287° |
| 2026-04-24 12:44 | 25.48398 | 54.43972 | 31570 ft | 443 kts | 287° |
| 2026-04-24 12:44 | 25.49346 | 54.40762 | 32721 ft | 435 kts | 287° |
| 2026-04-24 12:45 | 25.50273 | 54.37620 | 33556 ft | 431 kts | 287° |
| 2026-04-24 12:45 | 25.51198 | 54.34477 | 33796 ft | 434 kts | 286° |
| 2026-04-24 12:45 | 25.52138 | 54.31283 | 33808 ft | 430 kts | 286° |
| 2026-04-24 12:46 | 25.53996 | 54.24960 | 33810 ft | 426 kts | 286° |
| 2026-04-24 12:46 | 25.55868 | 54.18583 | 33813 ft | 429 kts | 286° |
| 2026-04-24 12:47 | 25.57704 | 54.12319 | 33817 ft | 427 kts | 286° |
| 2026-04-24 12:47 | 25.59532 | 54.06071 | 33822 ft | 428 kts | 286° |
| 2026-04-24 12:48 | 25.61319 | 53.99815 | 33829 ft | 427 kts | 285° |
| 2026-04-24 12:48 | 25.63114 | 53.93512 | 33825 ft | 427 kts | 286° |
| 2026-04-24 12:49 | 25.64904 | 53.87216 | 33825 ft | 428 kts | 285° |
| 2026-04-24 12:49 | 25.66684 | 53.80947 | 33824 ft | 428 kts | 285° |
| 2026-04-24 12:50 | 25.68476 | 53.74627 | 33825 ft | 430 kts | 285° |
| 2026-04-24 12:50 | 25.70259 | 53.68310 | 33824 ft | 429 kts | 285° |
| 2026-04-24 12:51 | 25.72026 | 53.62019 | 33822 ft | 429 kts | 285° |
| 2026-04-24 12:51 | 25.73793 | 53.55723 | 33822 ft | 429 kts | 285° |
| 2026-04-24 12:52 | 25.75559 | 53.49419 | 33820 ft | 429 kts | 285° |
| 2026-04-24 12:52 | 25.77326 | 53.43124 | 33821 ft | 428 kts | 285° |
| 2026-04-24 12:53 | 25.79089 | 53.36836 | 33823 ft | 428 kts | 285° |
| 2026-04-24 12:53 | 25.80855 | 53.30523 | 33840 ft | 429 kts | 285° |
| 2026-04-24 12:54 | 25.82620 | 53.24204 | 33849 ft | 430 kts | 285° |
| 2026-04-24 12:54 | 25.84469 | 53.17914 | 33849 ft | 432 kts | 290° |
| 2026-04-24 12:55 | 25.86925 | 53.11824 | 33848 ft | 432 kts | 292° |
| 2026-04-24 12:55 | 25.89400 | 53.05761 | 33848 ft | 435 kts | 291° |
| 2026-04-24 12:56 | 25.91886 | 52.99651 | 33848 ft | 432 kts | 291° |
| 2026-04-24 12:56 | 25.94349 | 52.93585 | 33846 ft | 433 kts | 291° |
| 2026-04-24 12:57 | 25.96826 | 52.87477 | 33847 ft | 433 kts | 291° |
| 2026-04-24 12:57 | 25.99283 | 52.81407 | 33850 ft | 431 kts | 291° |
| 2026-04-24 12:58 | 26.01727 | 52.75359 | 33853 ft | 431 kts | 291° |
| 2026-04-24 12:58 | 26.04355 | 52.69371 | 33850 ft | 430 kts | 294° |
| 2026-04-24 12:59 | 26.07057 | 52.63423 | 33850 ft | 431 kts | 294° |
| 2026-04-24 12:59 | 26.09736 | 52.57492 | 33852 ft | 431 kts | 293° |
| 2026-04-24 13:00 | 26.12432 | 52.51507 | 33851 ft | 433 kts | 294° |
| 2026-04-24 13:00 | 26.15136 | 52.45522 | 33843 ft | 430 kts | 293° |
| 2026-04-24 13:01 | 26.17816 | 52.39576 | 33851 ft | 430 kts | 293° |
| 2026-04-24 13:01 | 26.20486 | 52.33642 | 33861 ft | 430 kts | 293° |
| 2026-04-24 13:02 | 26.23134 | 52.27687 | 33865 ft | 428 kts | 292° |
| 2026-04-24 13:02 | 26.25727 | 52.21684 | 33865 ft | 430 kts | 291° |
| 2026-04-24 13:03 | 26.28330 | 52.15657 | 33868 ft | 431 kts | 292° |
| 2026-04-24 13:03 | 26.30916 | 52.09666 | 33864 ft | 430 kts | 291° |
| 2026-04-24 13:04 | 26.33513 | 52.03652 | 33866 ft | 428 kts | 292° |
| 2026-04-24 13:04 | 26.36072 | 51.97726 | 33866 ft | 428 kts | 292° |
| 2026-04-24 13:05 | 26.38445 | 51.91642 | 33869 ft | 426 kts | 287° |
| 2026-04-24 13:05 | 26.40520 | 51.85461 | 33866 ft | 424 kts | 287° |
| 2026-04-24 13:06 | 26.42601 | 51.79252 | 33869 ft | 426 kts | 287° |
| 2026-04-24 13:06 | 26.44664 | 51.73091 | 33871 ft | 426 kts | 287° |
| 2026-04-24 13:07 | 26.46734 | 51.66902 | 33871 ft | 428 kts | 287° |
| 2026-04-24 13:07 | 26.48817 | 51.60663 | 33866 ft | 427 kts | 287° |
| 2026-04-24 13:08 | 26.50880 | 51.54465 | 33865 ft | 426 kts | 287° |
| 2026-04-24 13:08 | 26.52934 | 51.48285 | 33865 ft | 425 kts | 287° |
| 2026-04-24 13:09 | 26.56011 | 51.39010 | 33868 ft | 426 kts | 287° |
| 2026-04-24 13:09 | 26.58803 | 51.30571 | 33882 ft | 425 kts | 287° |
| 2026-04-24 13:10 | 26.62822 | 51.18435 | 33883 ft | 426 kts | 286° |
| 2026-04-24 13:10 | 26.66553 | 51.07137 | 33890 ft | 426 kts | 286° |
| 2026-04-24 13:11 | 26.70579 | 50.94768 | 33893 ft | 423 kts | 285° |
| 2026-04-24 13:11 | 26.74393 | 50.82827 | 33878 ft | 423 kts | 285° |
| 2026-04-24 13:12 | 26.75438 | 50.79546 | 34451 ft | 424 kts | 291° |
| 2026-04-24 13:12 | 26.76446 | 50.76381 | 34254 ft | 440 kts | 289° |
| 2026-04-24 13:12 | 26.77483 | 50.73127 | 34038 ft | 456 kts | 289° |
| 2026-04-24 13:12 | 26.79223 | 50.67661 | 34005 ft | 462 kts | 289° |
| 2026-04-24 13:13 | 26.83743 | 50.54146 | 34005 ft | 462 kts | 291° |
| 2026-04-24 13:13 | 26.91778 | 50.35580 | 34005 ft | 462 kts | 302° |
| 2026-04-24 13:14 | 26.97842 | 50.24558 | 34005 ft | 462 kts | 301° |
| 2026-04-24 13:14 | 27.05856 | 50.10526 | 34008 ft | 462 kts | 309° |
| 2026-04-24 13:15 | 27.15609 | 49.97707 | 34005 ft | 462 kts | 310° |